Time;durP1;ratioP1;P1;durP2;ratioP2;P2;SDS_P1;SDS_P2;PMS_P1;PMS_P2;Temp;Humidity;BMP_temperature;BMP_pressure;BME280_temperature;BME280_humidity;BME280_pressure;Samples;Min_cycle;Max_cycle;Signal;HPM_P1;HPM_P2
2021/03/01 00:00:35;;;;;;;11.23;6.83;;;;;;;;;;5098154;28;20760;-69
2021/03/01 00:03:01;;;;;;;11.10;7.20;;;;;;;;;;5080567;28;20434;-68
2021/03/01 00:05:27;;;;;;;16.97;8.07;;;;;;;;;;5078353;28;20400;-68
2021/03/01 00:07:53;;;;;;;20.60;9.07;;;;;;;;;;5093820;28;20426;-68
2021/03/01 00:10:19;;;;;;;12.43;8.23;;;;;;;;;;5095870;28;20399;-68
2021/03/01 00:12:45;;;;;;;13.77;7.67;;;;;;;;;;5092665;28;20430;-68
2021/03/01 00:15:13;;;;;;;16.67;8.97;;;;;;;;;;5098133;28;20445;-69
2021/03/01 00:17:40;;;;;;;11.90;7.70;;;;;;;;;;5096594;28;20575;-69
2021/03/01 00:20:07;;;;;;;16.03;8.47;;;;;;;;;;5098021;28;20432;-69
2021/03/01 00:22:34;;;;;;;14.07;8.43;;;;;;;;;;5096499;28;20428;-69
2021/03/01 00:25:00;;;;;;;14.77;8.23;;;;;;;;;;5097682;28;20445;-69
2021/03/01 00:27:26;;;;;;;14.70;8.13;;;;;;;;;;5097106;28;20935;-69
2021/03/01 00:29:52;;;;;;;22.53;9.50;;;;;;;;;;5097707;28;20409;-69
2021/03/01 00:32:18;;;;;;;15.93;8.33;;;;;;;;;;5073346;28;20459;-69
2021/03/01 00:34:44;;;;;;;9.70;7.30;;;;;;;;;;5078028;28;20910;-69
2021/03/01 00:37:10;;;;;;;12.13;7.43;;;;;;;;;;5080787;28;20449;-69
2021/03/01 00:39:36;;;;;;;16.00;7.70;;;;;;;;;;5098142;28;20426;-69
2021/03/01 00:42:02;;;;;;;12.47;8.40;;;;;;;;;;5073619;28;20443;-69
2021/03/01 00:44:28;;;;;;;12.77;8.50;;;;;;;;;;5077542;28;20936;-69
2021/03/01 00:46:54;;;;;;;13.20;7.43;;;;;;;;;;5078220;28;20444;-69
2021/03/01 00:49:20;;;;;;;16.73;8.07;;;;;;;;;;5079297;28;20424;-69
2021/03/01 00:51:46;;;;;;;15.67;6.87;;;;;;;;;;5096182;28;20942;-69
2021/03/01 00:54:12;;;;;;;15.50;9.10;;;;;;;;;;5097169;28;20434;-69
2021/03/01 00:56:38;;;;;;;13.23;8.30;;;;;;;;;;5098894;28;20441;-70
2021/03/01 00:59:04;;;;;;;14.20;7.90;;;;;;;;;;5100215;28;20431;-70
2021/03/01 01:01:30;;;;;;;13.17;8.07;;;;;;;;;;5101689;28;20536;-69
2021/03/01 01:03:56;;;;;;;21.23;7.90;;;;;;;;;;5099378;28;20957;-69
2021/03/01 01:06:22;;;;;;;11.53;8.00;;;;;;;;;;5100893;28;20436;-70
2021/03/01 01:08:48;;;;;;;11.63;7.03;;;;;;;;;;5099145;28;20952;-69
2021/03/01 01:11:14;;;;;;;16.10;7.63;;;;;;;;;;5100805;28;20542;-69
2021/03/01 01:13:40;;;;;;;12.90;7.67;;;;;;;;;;5099348;28;20477;-69
2021/03/01 01:16:06;;;;;;;12.23;7.93;;;;;;;;;;5100049;28;20483;-69
2021/03/01 01:18:32;;;;;;;12.70;7.77;;;;;;;;;;5099016;28;20457;-69
2021/03/01 01:20:58;;;;;;;12.87;7.70;;;;;;;;;;5100208;28;20400;-69
2021/03/01 01:23:24;;;;;;;13.00;7.63;;;;;;;;;;5079507;28;20469;-68
2021/03/01 01:25:50;;;;;;;12.93;8.30;;;;;;;;;;5100358;28;20397;-69
2021/03/01 01:28:16;;;;;;;13.63;7.30;;;;;;;;;;5099933;28;20444;-69
2021/03/01 01:30:42;;;;;;;16.30;8.67;;;;;;;;;;5100787;28;20864;-68
2021/03/01 01:33:08;;;;;;;12.60;7.90;;;;;;;;;;5081271;28;20426;-68
2021/03/01 01:35:34;;;;;;;15.80;7.30;;;;;;;;;;5100463;28;20398;-69
2021/03/01 01:38:00;;;;;;;9.87;7.20;;;;;;;;;;5098774;28;20463;-69
2021/03/01 01:40:26;;;;;;;16.37;7.80;;;;;;;;;;5100512;28;20539;-68
2021/03/01 01:42:52;;;;;;;12.90;7.23;;;;;;;;;;5097976;28;20441;-68
2021/03/01 01:45:20;;;;;;;12.33;7.73;;;;;;;;;;5100251;28;20474;-68
2021/03/01 01:47:48;;;;;;;13.80;7.43;;;;;;;;;;5099590;28;20428;-68
2021/03/01 01:50:14;;;;;;;13.50;7.93;;;;;;;;;;5100239;28;20418;-69
2021/03/01 01:52:41;;;;;;;12.27;7.37;;;;;;;;;;5098852;28;20421;-68
2021/03/01 01:55:08;;;;;;;14.03;6.50;;;;;;;;;;5100521;28;20434;-68
2021/03/01 01:57:35;;;;;;;10.53;7.40;;;;;;;;;;5098476;28;20487;-68
2021/03/01 02:00:01;;;;;;;12.97;7.63;;;;;;;;;;5100027;28;20402;-68
2021/03/01 02:02:27;;;;;;;13.80;7.33;;;;;;;;;;5081142;28;20413;-68
2021/03/01 02:04:56;;;;;;;12.60;7.50;;;;;;;;;;5100115;28;20434;-68
2021/03/01 02:07:51;;;;;;;13.10;7.00;;;;;;;;;;5099136;28;20770;-68
2021/03/01 02:10:27;;;;;;;12.20;7.30;;;;;;;;;;5060848;28;20426;-68
2021/03/01 02:12:53;;;;;;;12.93;7.53;;;;;;;;;;5098495;28;20430;-68
2021/03/01 02:15:22;;;;;;;9.90;6.63;;;;;;;;;;5099289;28;20571;-68
2021/03/01 02:17:48;;;;;;;13.33;7.23;;;;;;;;;;5097544;28;20920;-68
2021/03/01 02:20:14;;;;;;;13.53;7.70;;;;;;;;;;5098385;28;20550;-68
2021/03/01 02:22:40;;;;;;;11.07;6.63;;;;;;;;;;5098712;28;20431;-68
2021/03/01 02:25:12;;;;;;;12.20;7.30;;;;;;;;;;5099760;28;20443;-68
2021/03/01 02:27:41;;;;;;;12.10;7.23;;;;;;;;;;5098999;28;20431;-68
2021/03/01 02:30:16;;;;;;;15.23;8.07;;;;;;;;;;5099732;28;20428;-68
2021/03/01 02:32:43;;;;;;;13.47;8.67;;;;;;;;;;5099723;28;20562;-68
2021/03/01 02:35:11;;;;;;;10.60;7.43;;;;;;;;;;5099926;28;20415;-68
2021/03/01 02:37:38;;;;;;;13.03;9.00;;;;;;;;;;5081076;28;20464;-68
2021/03/01 02:40:05;;;;;;;12.10;6.90;;;;;;;;;;5099985;28;20418;-68
2021/03/01 02:42:32;;;;;;;14.17;7.10;;;;;;;;;;5096272;28;20426;-68
2021/03/01 02:44:58;;;;;;;14.40;8.13;;;;;;;;;;5097692;28;20448;-68
2021/03/01 02:47:26;;;;;;;12.10;7.30;;;;;;;;;;5099581;28;20405;-68
2021/03/01 02:49:53;;;;;;;10.03;6.27;;;;;;;;;;5080298;28;20430;-68
2021/03/01 02:52:20;;;;;;;16.47;7.30;;;;;;;;;;5099122;28;20843;-68
2021/03/01 02:54:47;;;;;;;13.70;8.10;;;;;;;;;;5096603;28;20907;-68
2021/03/01 02:57:13;;;;;;;16.43;7.93;;;;;;;;;;5097458;28;20461;-68
2021/03/01 02:59:39;;;;;;;15.53;8.10;;;;;;;;;;5098221;28;20454;-68
2021/03/01 03:02:06;;;;;;;12.23;8.17;;;;;;;;;;5096721;28;20426;-68
2021/03/01 03:04:33;;;;;;;10.47;7.03;;;;;;;;;;5091044;28;20442;-68
2021/03/01 03:06:59;;;;;;;16.40;9.50;;;;;;;;;;5099016;28;20884;-68
2021/03/01 03:09:26;;;;;;;11.93;7.63;;;;;;;;;;5098184;28;20425;-68
2021/03/01 03:11:54;;;;;;;13.00;8.17;;;;;;;;;;5099371;28;20408;-68
2021/03/01 03:14:22;;;;;;;14.43;7.57;;;;;;;;;;5097215;28;20454;-68
2021/03/01 03:16:51;;;;;;;11.40;7.00;;;;;;;;;;5098694;28;20449;-68
2021/03/01 03:19:17;;;;;;;12.10;7.37;;;;;;;;;;5098300;28;20429;-68
2021/03/01 03:21:43;;;;;;;25.80;8.43;;;;;;;;;;5099693;28;20886;-68
2021/03/01 03:24:10;;;;;;;13.40;7.03;;;;;;;;;;5098151;28;20464;-68
2021/03/01 03:26:36;;;;;;;12.30;8.20;;;;;;;;;;5099558;28;20407;-68
2021/03/01 03:29:02;;;;;;;16.10;7.27;;;;;;;;;;5099572;28;20425;-68
2021/03/01 03:31:28;;;;;;;17.07;8.07;;;;;;;;;;5100651;28;20411;-68
2021/03/01 03:33:54;;;;;;;14.73;9.00;;;;;;;;;;5099207;28;20453;-68
2021/03/01 03:36:24;;;;;;;16.10;8.07;;;;;;;;;;5100351;28;20448;-68
2021/03/01 03:38:55;;;;;;;13.47;8.77;;;;;;;;;;5098018;28;20526;-68
2021/03/01 03:41:22;;;;;;;11.57;6.80;;;;;;;;;;5081862;28;20454;-68
2021/03/01 03:43:48;;;;;;;15.80;8.90;;;;;;;;;;5099112;28;20441;-68
2021/03/01 03:46:14;;;;;;;12.70;7.70;;;;;;;;;;5098461;28;20431;-68
2021/03/01 03:48:42;;;;;;;14.17;7.63;;;;;;;;;;5097433;28;20448;-68
2021/03/01 03:51:10;;;;;;;24.03;7.80;;;;;;;;;;5098515;28;20406;-68
2021/03/01 03:53:42;;;;;;;15.43;7.80;;;;;;;;;;5098794;28;20963;-68
2021/03/01 03:56:10;;;;;;;11.80;7.67;;;;;;;;;;5099172;28;20506;-68
2021/03/01 03:58:37;;;;;;;16.63;7.77;;;;;;;;;;5098312;28;20402;-68
2021/03/01 04:01:03;;;;;;;14.67;8.70;;;;;;;;;;5080911;28;20407;-68
2021/03/01 04:03:31;;;;;;;13.70;7.57;;;;;;;;;;5098573;28;20448;-68
2021/03/01 04:05:59;;;;;;;11.80;7.07;;;;;;;;;;5101964;28;20396;-68
2021/03/01 04:08:27;;;;;;;14.13;7.97;;;;;;;;;;5102210;28;20400;-68
2021/03/01 04:10:53;;;;;;;14.27;7.30;;;;;;;;;;5103032;28;20923;-68
2021/03/01 04:13:20;;;;;;;9.80;6.63;;;;;;;;;;5102599;28;20444;-68
2021/03/01 04:15:49;;;;;;;17.93;6.77;;;;;;;;;;5102363;28;20421;-68
2021/03/01 04:18:17;;;;;;;18.50;7.50;;;;;;;;;;5102626;28;20490;-68
2021/03/01 04:20:44;;;;;;;11.80;6.60;;;;;;;;;;5101807;28;20465;-68
2021/03/01 04:23:11;;;;;;;14.93;6.30;;;;;;;;;;5102894;28;20443;-68
2021/03/01 04:25:37;;;;;;;9.43;6.60;;;;;;;;;;5097823;22;20488;-68
2021/03/01 04:28:04;;;;;;;10.17;5.67;;;;;;;;;;5075612;28;20414;-67
2021/03/01 04:30:30;;;;;;;12.43;6.83;;;;;;;;;;5092015;28;20435;-68
2021/03/01 04:32:58;;;;;;;8.17;5.87;;;;;;;;;;5094347;28;20476;-68
2021/03/01 04:35:24;;;;;;;10.23;6.30;;;;;;;;;;5090649;28;20448;-68
2021/03/01 04:37:50;;;;;;;11.97;6.93;;;;;;;;;;5095753;28;20451;-68
2021/03/01 04:40:16;;;;;;;15.07;6.43;;;;;;;;;;5094110;28;20478;-67
2021/03/01 04:42:44;;;;;;;13.63;6.60;;;;;;;;;;5098230;28;20895;-67
2021/03/01 04:45:10;;;;;;;9.73;6.83;;;;;;;;;;5097972;28;20447;-67
2021/03/01 04:47:37;;;;;;;12.03;6.57;;;;;;;;;;5099544;28;20411;-67
2021/03/01 04:50:03;;;;;;;14.23;6.80;;;;;;;;;;5098394;28;20856;-67
2021/03/01 04:52:31;;;;;;;10.53;6.70;;;;;;;;;;5096608;28;20425;-67
2021/03/01 04:54:58;;;;;;;14.50;7.50;;;;;;;;;;5097200;28;20449;-68
2021/03/01 04:57:26;;;;;;;17.03;7.27;;;;;;;;;;5079474;28;20481;-67
2021/03/01 04:59:52;;;;;;;12.60;7.70;;;;;;;;;;5096858;28;20764;-67
2021/03/01 05:02:19;;;;;;;12.13;6.90;;;;;;;;;;5097555;28;20441;-67
2021/03/01 05:04:45;;;;;;;10.33;6.63;;;;;;;;;;5096183;28;20977;-67
2021/03/01 05:07:11;;;;;;;14.50;8.23;;;;;;;;;;5097651;28;20415;-67
2021/03/01 05:09:38;;;;;;;14.37;7.90;;;;;;;;;;5096716;28;20776;-67
2021/03/01 05:12:05;;;;;;;11.87;7.60;;;;;;;;;;5098196;28;20403;-68
2021/03/01 05:14:31;;;;;;;12.33;6.80;;;;;;;;;;5078021;28;20451;-68
2021/03/01 05:16:57;;;;;;;10.73;8.03;;;;;;;;;;5096865;28;20458;-68
2021/03/01 05:19:23;;;;;;;15.63;7.57;;;;;;;;;;5096540;28;20419;-68
2021/03/01 05:21:49;;;;;;;14.37;7.70;;;;;;;;;;5097182;28;20397;-68
2021/03/01 05:24:15;;;;;;;14.97;8.00;;;;;;;;;;5096622;28;20467;-68
2021/03/01 05:26:41;;;;;;;15.00;6.80;;;;;;;;;;5096704;28;20424;-68
2021/03/01 05:29:07;;;;;;;14.50;8.73;;;;;;;;;;5096525;28;20960;-68
2021/03/01 05:31:33;;;;;;;12.67;7.70;;;;;;;;;;5097742;28;20401;-68
2021/03/01 05:33:59;;;;;;;11.13;8.30;;;;;;;;;;5095825;28;20446;-68
2021/03/01 05:36:25;;;;;;;18.57;8.53;;;;;;;;;;5097730;28;20458;-68
2021/03/01 05:38:51;;;;;;;12.63;8.27;;;;;;;;;;5097614;28;20405;-68
2021/03/01 05:41:18;;;;;;;16.00;7.87;;;;;;;;;;5096788;28;20424;-68
2021/03/01 05:43:46;;;;;;;13.00;7.40;;;;;;;;;;5098313;28;20400;-68
2021/03/01 05:46:12;;;;;;;10.13;6.93;;;;;;;;;;5096726;28;20522;-67
2021/03/01 05:48:40;;;;;;;15.90;7.03;;;;;;;;;;5097749;28;20447;-67
2021/03/01 05:51:07;;;;;;;14.10;7.00;;;;;;;;;;5096798;28;20432;-67
2021/03/01 05:53:38;;;;;;;12.53;7.90;;;;;;;;;;5096718;28;20400;-67
2021/03/01 05:56:04;;;;;;;12.30;7.23;;;;;;;;;;5094880;28;20509;-67
2021/03/01 05:58:31;;;;;;;18.30;6.47;;;;;;;;;;5096528;28;20429;-67
2021/03/01 06:01:01;;;;;;;18.00;7.53;;;;;;;;;;5096659;28;20424;-68
2021/03/01 06:03:31;;;;;;;20.43;7.90;;;;;;;;;;5097031;28;20435;-67
2021/03/01 06:05:57;;;;;;;10.27;7.20;;;;;;;;;;5095866;28;20438;-67
2021/03/01 06:08:24;;;;;;;10.57;7.30;;;;;;;;;;5096330;28;20400;-68
2021/03/01 06:10:50;;;;;;;14.83;7.40;;;;;;;;;;5095392;28;20418;-68
2021/03/01 06:13:17;;;;;;;8.80;6.10;;;;;;;;;;5096522;28;20405;-67
2021/03/01 06:15:43;;;;;;;15.47;8.23;;;;;;;;;;5095462;28;20445;-68
2021/03/01 06:18:12;;;;;;;13.10;6.23;;;;;;;;;;5077603;28;20463;-68
2021/03/01 06:20:40;;;;;;;13.10;7.17;;;;;;;;;;5095283;28;20420;-67
2021/03/01 06:23:06;;;;;;;12.53;8.20;;;;;;;;;;5096715;28;20763;-68
2021/03/01 06:25:33;;;;;;;11.63;7.60;;;;;;;;;;5095338;28;20504;-68
2021/03/01 06:28:03;;;;;;;13.03;8.03;;;;;;;;;;5077822;28;20434;-68
2021/03/01 06:30:30;;;;;;;15.77;8.13;;;;;;;;;;5095290;28;20779;-69
2021/03/01 06:33:06;;;;;;;14.70;8.80;;;;;;;;;;5096766;28;20419;-69
2021/03/01 06:35:34;;;;;;;11.73;8.40;;;;;;;;;;5095289;28;20440;-69
2021/03/01 06:38:16;;;;;;;11.27;7.37;;;;;;;;;;5095977;28;20962;-69
2021/03/01 06:40:43;;;;;;;14.33;8.53;;;;;;;;;;5095302;28;21001;-69
2021/03/01 06:43:15;;;;;;;12.83;7.97;;;;;;;;;;5096905;28;20396;-69
2021/03/01 06:45:42;;;;;;;13.87;7.57;;;;;;;;;;5094515;28;20455;-68
2021/03/01 06:48:08;;;;;;;15.53;8.60;;;;;;;;;;5094961;28;20476;-68
2021/03/01 06:50:35;;;;;;;22.53;9.07;;;;;;;;;;5094983;28;20935;-68
2021/03/01 06:53:01;;;;;;;16.13;9.43;;;;;;;;;;5093224;28;20419;-69
2021/03/01 06:55:27;;;;;;;21.53;10.23;;;;;;;;;;5092384;28;20529;-68
2021/03/01 06:57:53;;;;;;;17.20;8.50;;;;;;;;;;5094056;28;20440;-68
2021/03/01 07:00:27;;;;;;;17.83;7.90;;;;;;;;;;5092911;28;20429;-67
2021/03/01 07:02:53;;;;;;;18.87;7.40;;;;;;;;;;5093487;28;20412;-66
2021/03/01 07:05:19;;;;;;;12.57;7.77;;;;;;;;;;5092108;28;20837;-72
2021/03/01 07:07:45;;;;;;;13.00;8.20;;;;;;;;;;5095193;28;20423;-68
2021/03/01 07:10:11;;;;;;;18.20;8.87;;;;;;;;;;5093421;28;20519;-70
2021/03/01 07:12:37;;;;;;;15.03;9.70;;;;;;;;;;5093670;28;20402;-70
2021/03/01 07:15:05;;;;;;;17.50;8.90;;;;;;;;;;5093742;28;20450;-69
2021/03/01 07:17:32;;;;;;;14.93;8.97;;;;;;;;;;5093160;28;20446;-73
2021/03/01 07:19:58;;;;;;;14.80;7.97;;;;;;;;;;5092392;28;20758;-70
2021/03/01 07:22:24;;;;;;;19.65;9.70;;;;;;;;;;5094274;28;20409;-64
2021/03/01 07:24:53;;;;;;;16.30;9.23;;;;;;;;;;5098283;28;20235;-67
2021/03/01 07:27:20;;;;;;;15.80;9.67;;;;;;;;;;5097589;28;20426;-69
2021/03/01 07:29:46;;;;;;;18.37;9.17;;;;;;;;;;5096624;28;20425;-65
2021/03/01 07:32:13;;;;;;;15.17;9.40;;;;;;;;;;5094586;28;20986;-67
2021/03/01 07:34:40;;;;;;;16.70;9.33;;;;;;;;;;5095087;28;20423;-66
2021/03/01 07:37:06;;;;;;;16.30;9.27;;;;;;;;;;5077067;28;20453;-67
2021/03/01 07:39:33;;;;;;;15.30;10.40;;;;;;;;;;5096686;28;20427;-68
2021/03/01 07:41:59;;;;;;;15.23;10.20;;;;;;;;;;5099554;28;20444;-69
2021/03/01 07:44:26;;;;;;;16.00;10.00;;;;;;;;;;5100992;28;20428;-68
2021/03/01 07:46:52;;;;;;;19.13;10.23;;;;;;;;;;5099142;28;20431;-68
2021/03/01 07:49:37;;;;;;;18.90;9.10;;;;;;;;;;5100502;28;20908;-67
2021/03/01 07:52:03;;;;;;;18.53;10.30;;;;;;;;;;5096590;28;20888;-68
2021/03/01 07:54:48;;;;;;;18.93;10.73;;;;;;;;;;5103219;28;20465;-67
2021/03/01 07:57:14;;;;;;;19.33;10.90;;;;;;;;;;5095534;28;20456;-71
2021/03/01 07:59:40;;;;;;;16.93;9.33;;;;;;;;;;5091058;28;21019;-73
2021/03/01 08:02:10;;;;;;;18.60;11.52;;;;;;;;;;5093097;28;20497;-69
2021/03/01 08:04:36;;;;;;;16.50;11.27;;;;;;;;;;5092225;28;20271;-69
2021/03/01 08:07:02;;;;;;;14.77;9.87;;;;;;;;;;5087658;28;20427;-68
2021/03/01 08:09:47;;;;;;;17.10;9.27;;;;;;;;;;5090036;28;20542;-68
2021/03/01 08:12:36;;;;;;;15.93;9.57;;;;;;;;;;5074677;28;20495;-68
2021/03/01 08:15:09;;;;;;;17.53;9.20;;;;;;;;;;5055780;28;20530;-69
2021/03/01 08:17:36;;;;;;;12.30;8.37;;;;;;;;;;5092928;28;20455;-69
2021/03/01 08:20:05;;;;;;;15.20;8.90;;;;;;;;;;5093735;28;20431;-66
2021/03/01 08:22:31;;;;;;;16.90;9.90;;;;;;;;;;5087705;28;20421;-67
2021/03/01 08:24:58;;;;;;;15.70;10.00;;;;;;;;;;5087057;28;20554;-71
2021/03/01 08:27:23;;;;;;;15.82;9.90;;;;;;;;;;5091481;28;20427;-68
2021/03/01 08:30:29;;;;;;;14.50;9.40;;;;;;;;;;5089566;28;20170;-68
2021/03/01 08:33:10;;;;;;;14.67;9.60;;;;;;;;;;5013149;28;20430;-70
2021/03/01 08:35:40;;;;;;;14.07;8.57;;;;;;;;;;5009521;28;20454;-68
2021/03/01 08:38:06;;;;;;;14.13;8.80;;;;;;;;;;5062203;28;20467;-71
2021/03/01 08:40:33;;;;;;;10.90;8.77;;;;;;;;;;5090985;28;20416;-66
2021/03/01 08:43:01;;;;;;;17.60;9.47;;;;;;;;;;5094433;28;20194;-68
2021/03/01 08:45:36;;;;;;;18.02;10.80;;;;;;;;;;5088590;28;20413;-68
2021/03/01 08:48:03;;;;;;;27.57;10.80;;;;;;;;;;5088323;28;20661;-69
2021/03/01 08:50:31;;;;;;;18.30;9.83;;;;;;;;;;5092198;28;20406;-68
2021/03/01 08:52:57;;;;;;;13.70;9.47;;;;;;;;;;5086361;28;20910;-65
2021/03/01 08:55:23;;;;;;;18.50;9.13;;;;;;;;;;5094181;28;20428;-66
2021/03/01 08:58:16;;;;;;;17.87;10.43;;;;;;;;;;5090603;28;20481;-66
2021/03/01 09:00:51;;;;;;;17.33;9.10;;;;;;;;;;5089722;28;20433;-66
2021/03/01 09:03:17;;;;;;;10.97;8.10;;;;;;;;;;5093700;28;20410;-66
2021/03/01 09:05:44;;;;;;;21.47;8.63;;;;;;;;;;5087590;28;20518;-66
2021/03/01 09:08:11;;;;;;;13.10;8.40;;;;;;;;;;5074323;28;20778;-66
2021/03/01 09:10:38;;;;;;;15.23;7.23;;;;;;;;;;5093284;28;20416;-66
2021/03/01 09:13:05;;;;;;;10.77;7.77;;;;;;;;;;5094849;28;20396;-66
2021/03/01 09:15:31;;;;;;;13.57;7.53;;;;;;;;;;5097657;28;20422;-68
2021/03/01 09:17:57;;;;;;;12.10;8.27;;;;;;;;;;5100491;28;20584;-67
2021/03/01 09:20:24;;;;;;;18.33;8.27;;;;;;;;;;5099959;28;20465;-67
2021/03/01 09:22:50;;;;;;;14.97;7.83;;;;;;;;;;5099659;28;20904;-67
2021/03/01 09:25:26;;;;;;;9.83;7.10;;;;;;;;;;5096221;28;20458;-67
2021/03/01 09:27:52;;;;;;;10.93;6.80;;;;;;;;;;5097478;28;20445;-67
2021/03/01 09:30:23;;;;;;;11.33;6.80;;;;;;;;;;5100920;28;20900;-67
2021/03/01 09:32:59;;;;;;;7.53;5.87;;;;;;;;;;5099436;28;20917;-67
2021/03/01 09:35:26;;;;;;;8.70;6.80;;;;;;;;;;5095429;28;20452;-67
2021/03/01 09:37:52;;;;;;;7.93;6.27;;;;;;;;;;5097316;28;20951;-66
2021/03/01 09:40:19;;;;;;;15.63;8.10;;;;;;;;;;5094892;28;20464;-68
2021/03/01 09:42:47;;;;;;;8.90;6.37;;;;;;;;;;5091710;28;20417;-67
2021/03/01 09:45:14;;;;;;;11.70;6.70;;;;;;;;;;5109198;28;20496;-66
2021/03/01 09:47:40;;;;;;;9.80;6.77;;;;;;;;;;5093967;28;20453;-68
2021/03/01 09:50:06;;;;;;;12.13;7.00;;;;;;;;;;5094524;28;20523;-67
2021/03/01 09:52:32;;;;;;;10.93;6.50;;;;;;;;;;5094332;28;20431;-67
2021/03/01 09:54:58;;;;;;;12.63;7.20;;;;;;;;;;5095644;28;20435;-68
2021/03/01 09:57:29;;;;;;;13.43;7.50;;;;;;;;;;5106349;28;20540;-67
2021/03/01 09:59:55;;;;;;;10.83;6.37;;;;;;;;;;5088774;28;20514;-68
2021/03/01 10:02:24;;;;;;;10.00;5.80;;;;;;;;;;5098075;28;20413;-68
2021/03/01 10:04:53;;;;;;;18.83;7.10;;;;;;;;;;5087909;28;20445;-68
2021/03/01 10:07:20;;;;;;;6.50;5.20;;;;;;;;;;5089532;28;20439;-68
2021/03/01 10:09:47;;;;;;;12.43;5.60;;;;;;;;;;5093783;28;20426;-67
2021/03/01 10:12:13;;;;;;;8.97;5.70;;;;;;;;;;5082468;28;20429;-69
2021/03/01 10:14:39;;;;;;;12.57;6.03;;;;;;;;;;5089423;28;20823;-68
2021/03/01 10:17:17;;;;;;;8.53;6.33;;;;;;;;;;5100455;28;20846;-68
2021/03/01 10:19:44;;;;;;;10.40;5.73;;;;;;;;;;5095081;28;20431;-68
2021/03/01 10:22:10;;;;;;;7.07;5.17;;;;;;;;;;5096509;28;20426;-68
2021/03/01 10:24:43;;;;;;;7.13;4.33;;;;;;;;;;5088107;28;21137;-66
2021/03/01 10:27:10;;;;;;;7.03;4.83;;;;;;;;;;5091998;28;20773;-66
2021/03/01 10:29:42;;;;;;;11.80;5.97;;;;;;;;;;5093098;28;20495;-68
2021/03/01 10:32:19;;;;;;;15.43;5.43;;;;;;;;;;5094159;28;20433;-68
2021/03/01 10:34:45;;;;;;;8.73;4.57;;;;;;;;;;5085233;28;20526;-67
2021/03/01 10:37:12;;;;;;;8.53;5.20;;;;;;;;;;5086964;28;20447;-67
2021/03/01 10:39:39;;;;;;;7.10;4.40;;;;;;;;;;5087949;28;20417;-67
2021/03/01 10:42:13;;;;;;;8.00;4.77;;;;;;;;;;5092105;28;20433;-67
2021/03/01 10:45:03;;;;;;;6.80;4.77;;;;;;;;;;5086406;28;20468;-68
2021/03/01 10:47:30;;;;;;;9.77;4.83;;;;;;;;;;5087684;28;20421;-68
2021/03/01 10:49:59;;;;;;;8.27;5.17;;;;;;;;;;5089148;28;20446;-68
2021/03/01 10:52:26;;;;;;;9.17;4.50;;;;;;;;;;5092812;28;20512;-67
2021/03/01 10:54:56;;;;;;;8.30;5.07;;;;;;;;;;5093112;28;20438;-68
2021/03/01 10:57:22;;;;;;;10.17;5.70;;;;;;;;;;5090651;28;20451;-68
2021/03/01 10:59:53;;;;;;;6.67;4.60;;;;;;;;;;5091407;28;20902;-67
2021/03/01 11:02:19;;;;;;;7.10;4.93;;;;;;;;;;5089873;28;20422;-66
2021/03/01 11:04:46;;;;;;;5.90;4.13;;;;;;;;;;5088675;28;20823;-66
2021/03/01 11:07:12;;;;;;;8.67;5.30;;;;;;;;;;5077624;28;20949;-66
2021/03/01 11:09:38;;;;;;;6.33;4.37;;;;;;;;;;5090553;28;20927;-66
2021/03/01 11:12:04;;;;;;;7.20;4.87;;;;;;;;;;5090629;28;20437;-66
2021/03/01 11:14:30;;;;;;;8.30;5.37;;;;;;;;;;5091344;28;20436;-66
2021/03/01 11:16:58;;;;;;;6.83;4.63;;;;;;;;;;5085334;28;20489;-68
2021/03/01 11:19:24;;;;;;;7.77;5.10;;;;;;;;;;5087105;28;20425;-67
2021/03/01 11:21:50;;;;;;;10.73;5.30;;;;;;;;;;5093133;28;20754;-68
2021/03/01 11:24:19;;;;;;;8.87;5.30;;;;;;;;;;5093196;28;20454;-66
2021/03/01 11:26:45;;;;;;;8.43;5.33;;;;;;;;;;5091128;28;20496;-66
2021/03/01 11:29:12;;;;;;;6.03;5.40;;;;;;;;;;5079051;28;20473;-65
2021/03/01 11:31:38;;;;;;;7.10;4.70;;;;;;;;;;5089604;28;20914;-65
2021/03/01 11:34:05;;;;;;;10.90;5.60;;;;;;;;;;5084810;28;20463;-65
2021/03/01 11:36:31;;;;;;;7.13;4.90;;;;;;;;;;5083767;28;20459;-66
2021/03/01 11:38:57;;;;;;;8.00;5.97;;;;;;;;;;5088620;28;20425;-65
2021/03/01 11:41:24;;;;;;;6.20;4.70;;;;;;;;;;5089855;28;20413;-66
2021/03/01 11:43:51;;;;;;;8.87;4.63;;;;;;;;;;5090139;28;20451;-67
2021/03/01 11:46:17;;;;;;;6.93;5.17;;;;;;;;;;5086993;28;20451;-67
2021/03/01 11:48:43;;;;;;;8.63;4.97;;;;;;;;;;5084929;28;20424;-67
2021/03/01 11:51:10;;;;;;;7.10;5.47;;;;;;;;;;5089784;28;20426;-67
2021/03/01 11:53:36;;;;;;;8.23;5.20;;;;;;;;;;5087336;28;20500;-67
2021/03/01 11:56:02;;;;;;;9.70;5.20;;;;;;;;;;5086937;28;20833;-67
2021/03/01 11:58:28;;;;;;;13.10;5.87;;;;;;;;;;5087119;28;20566;-66
2021/03/01 12:00:54;;;;;;;9.23;5.60;;;;;;;;;;5080346;28;20521;-66
2021/03/01 12:03:20;;;;;;;9.87;6.03;;;;;;;;;;5085203;28;20430;-66
2021/03/01 12:05:46;;;;;;;11.97;6.83;;;;;;;;;;5088067;28;20466;-66
2021/03/01 12:08:12;;;;;;;9.17;5.20;;;;;;;;;;5092066;28;20793;-67
2021/03/01 12:10:38;;;;;;;8.40;5.23;;;;;;;;;;5089474;28;20423;-66
2021/03/01 12:13:05;;;;;;;8.60;5.10;;;;;;;;;;5084517;28;20423;-67
2021/03/01 12:15:32;;;;;;;9.73;5.30;;;;;;;;;;5082141;28;20501;-67
2021/03/01 12:17:58;;;;;;;7.93;5.40;;;;;;;;;;5080920;28;20462;-67
2021/03/01 12:20:24;;;;;;;8.00;5.10;;;;;;;;;;5072276;28;20408;-67
2021/03/01 12:22:51;;;;;;;9.97;5.87;;;;;;;;;;5085820;28;20441;-67
2021/03/01 12:25:17;;;;;;;10.13;5.73;;;;;;;;;;5049760;28;623422;-67
2021/03/01 12:27:43;;;;;;;9.90;5.33;;;;;;;;;;5099819;28;20534;-67
2021/03/01 12:30:09;;;;;;;14.97;5.37;;;;;;;;;;5092419;28;20513;-67
2021/03/01 12:32:35;;;;;;;6.33;4.87;;;;;;;;;;5094795;28;20962;-67
2021/03/01 12:35:02;;;;;;;5.70;4.40;;;;;;;;;;5096901;28;20447;-67
2021/03/01 12:37:28;;;;;;;7.50;5.20;;;;;;;;;;5091129;28;20858;-67
2021/03/01 12:39:54;;;;;;;7.00;4.40;;;;;;;;;;5089575;28;20502;-67
2021/03/01 12:42:20;;;;;;;6.07;4.57;;;;;;;;;;5096573;28;20423;-67
2021/03/01 12:44:46;;;;;;;8.20;4.80;;;;;;;;;;5077959;28;20442;-67
2021/03/01 12:47:12;;;;;;;7.13;4.80;;;;;;;;;;5086784;28;20515;-67
2021/03/01 12:49:38;;;;;;;12.47;5.57;;;;;;;;;;5084848;28;20419;-66
2021/03/01 12:52:05;;;;;;;9.03;5.20;;;;;;;;;;5094056;28;20427;-67
2021/03/01 12:54:31;;;;;;;5.97;4.60;;;;;;;;;;5079033;28;20494;-66
2021/03/01 12:56:58;;;;;;;8.47;5.50;;;;;;;;;;5086835;28;20452;-68
2021/03/01 12:59:24;;;;;;;7.53;4.93;;;;;;;;;;5071933;28;20430;-68
2021/03/01 13:01:50;;;;;;;15.43;6.20;;;;;;;;;;5086858;28;20478;-68
2021/03/01 13:04:17;;;;;;;9.03;5.53;;;;;;;;;;5083076;28;20457;-69
2021/03/01 13:06:43;;;;;;;7.70;5.53;;;;;;;;;;5093445;28;20417;-69
2021/03/01 13:09:09;;;;;;;8.30;5.60;;;;;;;;;;5083959;28;20489;-69
2021/03/01 13:11:35;;;;;;;8.73;6.40;;;;;;;;;;5089806;28;20429;-69
2021/03/01 13:14:01;;;;;;;9.10;5.47;;;;;;;;;;5092484;28;20785;-69
2021/03/01 13:16:28;;;;;;;11.63;5.50;;;;;;;;;;5077840;28;20475;-68
2021/03/01 13:18:54;;;;;;;8.07;6.30;;;;;;;;;;5093961;28;20419;-68
2021/03/01 13:21:20;;;;;;;15.30;5.30;;;;;;;;;;5087813;28;20415;-68
2021/03/01 13:23:47;;;;;;;9.83;5.37;;;;;;;;;;5093715;28;20438;-67
2021/03/01 13:26:15;;;;;;;8.50;4.70;;;;;;;;;;5075779;28;20407;-68
2021/03/01 13:28:41;;;;;;;11.10;5.30;;;;;;;;;;5086800;28;20543;-67
2021/03/01 13:31:07;;;;;;;11.93;5.20;;;;;;;;;;5080296;28;20421;-68
2021/03/01 13:33:33;;;;;;;10.67;5.17;;;;;;;;;;5089857;28;20476;-68
2021/03/01 13:35:59;;;;;;;14.47;5.60;;;;;;;;;;5092214;28;20431;-68
2021/03/01 13:38:25;;;;;;;9.27;5.23;;;;;;;;;;5089803;28;20465;-68
2021/03/01 13:40:51;;;;;;;7.03;4.70;;;;;;;;;;5092512;28;20506;-69
2021/03/01 13:43:17;;;;;;;7.47;5.03;;;;;;;;;;5093565;28;20512;-68
2021/03/01 13:45:44;;;;;;;9.60;4.90;;;;;;;;;;5092818;28;20553;-69
2021/03/01 13:48:10;;;;;;;10.77;5.17;;;;;;;;;;5072995;28;20488;-68
2021/03/01 13:50:36;;;;;;;8.47;5.23;;;;;;;;;;5080848;28;20458;-68
2021/03/01 13:53:02;;;;;;;8.70;4.87;;;;;;;;;;5082454;28;20433;-68
2021/03/01 13:55:28;;;;;;;7.60;4.90;;;;;;;;;;5079160;28;20443;-69
2021/03/01 13:57:54;;;;;;;7.37;5.03;;;;;;;;;;5083433;28;22947;-69
2021/03/01 14:00:21;;;;;;;8.63;4.60;;;;;;;;;;5083934;28;20509;-68
2021/03/01 14:02:47;;;;;;;8.20;4.57;;;;;;;;;;5082604;28;20480;-69
2021/03/01 14:05:14;;;;;;;10.53;5.70;;;;;;;;;;5081909;28;20442;-68
2021/03/01 14:07:40;;;;;;;6.97;4.90;;;;;;;;;;5089014;28;20832;-68
2021/03/01 14:10:07;;;;;;;6.80;4.20;;;;;;;;;;5088272;28;20421;-68
2021/03/01 14:12:33;;;;;;;8.87;5.20;;;;;;;;;;5084855;28;20431;-68
2021/03/01 14:14:59;;;;;;;7.63;4.90;;;;;;;;;;5084768;28;20871;-69
2021/03/01 14:17:26;;;;;;;10.30;6.03;;;;;;;;;;5082963;28;20462;-69
2021/03/01 14:19:52;;;;;;;7.60;4.70;;;;;;;;;;5089175;28;20433;-68
2021/03/01 14:22:18;;;;;;;7.80;5.20;;;;;;;;;;5083339;28;20418;-68
2021/03/01 14:24:44;;;;;;;9.17;4.97;;;;;;;;;;5083152;28;20496;-67
2021/03/01 14:27:10;;;;;;;6.97;4.27;;;;;;;;;;5080425;28;20427;-68
2021/03/01 14:29:36;;;;;;;7.50;4.27;;;;;;;;;;5088426;28;20447;-67
2021/03/01 14:32:02;;;;;;;8.40;4.83;;;;;;;;;;5084569;28;20436;-68
2021/03/01 14:34:28;;;;;;;6.83;4.50;;;;;;;;;;5080452;28;20450;-68